Wetterdaten: aktuell Dienstag, 28.03.2017 02:10
Datum Zeit Temp. A. Feuchte A. Luftdruck Regen Wind Richtung Richtung Taupunkt Windchill Windben
28.03.2017 02:10 8,2 C 65 % 1020 hPa 0,0 l/m 0,0 km/h (0 Bft) W-SW 247 2,0 C 8,2 C 0,0 km/h (0 Bft)
28.03.2017 01:10 9,7 C 61 % 1020 hPa 0,0 l/m 0,0 km/h (0 Bft) O-SO 112 2,5 C 9,7 C 0,0 km/h (0 Bft)
28.03.2017 00:10 10,9 C 56 % 1020 hPa 0,0 l/m 0,0 km/h (0 Bft) O-NO 67 2,5 C 10,9 C 0,0 km/h (0 Bft)
27.03.2017 23:10 11,4 C 52 % 1020 hPa 0,0 l/m 0,0 km/h (0 Bft) O-SO 112 1,9 C 11,4 C 0,0 km/h (0 Bft)
27.03.2017 22:10 12,8 C 48 % 1021 hPa 0,0 l/m 0,0 km/h (0 Bft) O-NO 67 2,1 C 12,8 C 0,0 km/h (0 Bft)
27.03.2017 21:10 13,7 C 44 % 1020 hPa 0,0 l/m 0,0 km/h (0 Bft) O 90 1,7 C 13,7 C 0,0 km/h (0 Bft)
27.03.2017 20:10 15,3 C 36 % 1020 hPa 0,0 l/m 0,0 km/h (0 Bft) W-NW 292 0,3 C 15,3 C 2,2 km/h (1 Bft)
27.03.2017 19:10 18,3 C 32 % 1020 hPa 0,0 l/m 2,9 km/h (1 Bft) NW 315 1,3 C 18,3 C 4,3 km/h (1 Bft)
27.03.2017 18:10 19,6 C 30 % 1021 hPa 0,0 l/m 4,0 km/h (1 Bft) N-NW 337 1,6 C 19,6 C 6,5 km/h (2 Bft)
27.03.2017 17:10 21,0 C 30 % 1021 hPa 0,0 l/m 2,9 km/h (1 Bft) N 360 2,8 C 21,0 C 2,9 km/h (1 Bft)
27.03.2017 16:10 21,0 C 30 % 1022 hPa 0,0 l/m 2,9 km/h (1 Bft) N 360 2,8 C 21,0 C 2,9 km/h (1 Bft)
27.03.2017 15:10 21,0 C 30 % 1022 hPa 0,0 l/m 4,7 km/h (1 Bft) NW 315 2,8 C 21,0 C 6,5 km/h (2 Bft)
27.03.2017 14:10 18,4 C 39 % 1023 hPa 0,0 l/m 3,6 km/h (1 Bft) N 360 4,2 C 18,4 C 3,6 km/h (1 Bft)
27.03.2017 13:10 18,4 C 39 % 1024 hPa 0,0 l/m 3,6 km/h (1 Bft) N 360 4,2 C 18,4 C 3,6 km/h (1 Bft)
27.03.2017 12:10 19,4 C 38 % 1024 hPa 0,0 l/m 2,9 km/h (1 Bft) N-NW 337 4,7 C 19,4 C 6,5 km/h (2 Bft)
27.03.2017 11:10 17,4 C 43 % 1024 hPa 0,0 l/m 0,0 km/h (0 Bft) N 360 4,7 C 17,4 C 0,0 km/h (0 Bft)
27.03.2017 10:10 9,2 C 64 % 1024 hPa 0,0 l/m 0,0 km/h (0 Bft) N 360 2,8 C 9,2 C 0,0 km/h (0 Bft)
27.03.2017 09:10 9,2 C 64 % 1024 hPa 0,0 l/m 0,0 km/h (0 Bft) N 360 2,8 C 9,2 C 0,0 km/h (0 Bft)
27.03.2017 08:10 9,2 C 64 % 1025 hPa 0,0 l/m 0,0 km/h (0 Bft) N 360 2,8 C 9,2 C 0,0 km/h (0 Bft)
27.03.2017 07:10 9,2 C 64 % 1024 hPa 0,0 l/m 0,0 km/h (0 Bft) N 360 2,8 C 9,2 C 0,0 km/h (0 Bft)
27.03.2017 06:10 9,2 C 64 % 1024 hPa 0,0 l/m 0,0 km/h (0 Bft) N 360 2,8 C 9,2 C 0,0 km/h (0 Bft)
27.03.2017 05:10 9,2 C 64 % 1024 hPa 0,0 l/m 0,0 km/h (0 Bft) N 360 2,8 C 9,2 C 0,0 km/h (0 Bft)
27.03.2017 03:10 9,2 C 64 % 1024 hPa 0,0 l/m 0,0 km/h (0 Bft) N 360 2,8 C 9,2 C 0,0 km/h (0 Bft)
27.03.2017 03:00 9,2 C 64 % 1024 hPa 0,0 l/m 0,0 km/h (0 Bft) N 360 2,8 C 9,2 C 0,0 km/h (0 Bft)
_ Min-Zeit 02:00 17:40 18:40 - 03:00 - - 20:10 02:00 03:00
Minimum _ 8,2 C 27 % 1020 hPa - 0,0 km/h (0 Bft) - - 0,3 C 8,2 C 0,0 km/h (0 Bft)
_ Max-Zeit 14:40 01:40 08:10 03:00 18:00 - - 11:30 14:40 12:10
Maximum _ 21,4 C 65 % 1025 hPa 0,0 l/m 5,0 km/h
NW (1 Bft)
- - 6,5 C 21,4 C 6,5 km/h
N-NW (2 Bft)
Durchschnitt _ 13,7 C 50 % 1022 hPa #0,0 l/m 1,1 km/h (1 Bft) N - 2,7 C 13,7 C 1,5 km/h (1 Bft)